sensor_id;sensor_type;location;lat;lon;timestamp;P1;durP1;ratioP1;P2;durP2;ratioP2
40595;SDS011;26304;48.794;9.820;2024-02-14T00:02:03;3.13;;;2.88;;
40595;SDS011;26304;48.794;9.820;2024-02-14T00:04:26;3.78;;;2.95;;
40595;SDS011;26304;48.794;9.820;2024-02-14T00:06:49;3.10;;;2.80;;
40595;SDS011;26304;48.794;9.820;2024-02-14T00:09:11;2.75;;;2.55;;
40595;SDS011;26304;48.794;9.820;2024-02-14T00:11:35;3.33;;;2.90;;
40595;SDS011;26304;48.794;9.820;2024-02-14T00:13:57;2.95;;;2.47;;
40595;SDS011;26304;48.794;9.820;2024-02-14T00:16:21;3.50;;;3.20;;
40595;SDS011;26304;48.794;9.820;2024-02-14T00:18:43;2.75;;;2.55;;
40595;SDS011;26304;48.794;9.820;2024-02-14T00:21:05;3.10;;;2.90;;
40595;SDS011;26304;48.794;9.820;2024-02-14T00:23:28;3.22;;;2.92;;
40595;SDS011;26304;48.794;9.820;2024-02-14T00:25:50;3.03;;;2.80;;
40595;SDS011;26304;48.794;9.820;2024-02-14T00:28:14;3.05;;;2.75;;
40595;SDS011;26304;48.794;9.820;2024-02-14T00:30:36;3.30;;;2.95;;
40595;SDS011;26304;48.794;9.820;2024-02-14T00:32:59;3.17;;;2.88;;
40595;SDS011;26304;48.794;9.820;2024-02-14T00:35:21;3.08;;;2.47;;
40595;SDS011;26304;48.794;9.820;2024-02-14T00:37:44;3.00;;;2.78;;
40595;SDS011;26304;48.794;9.820;2024-02-14T00:40:07;3.13;;;2.47;;
40595;SDS011;26304;48.794;9.820;2024-02-14T00:42:31;2.95;;;2.70;;
40595;SDS011;26304;48.794;9.820;2024-02-14T00:44:55;3.03;;;2.72;;
40595;SDS011;26304;48.794;9.820;2024-02-14T00:47:18;2.60;;;2.40;;
40595;SDS011;26304;48.794;9.820;2024-02-14T00:49:40;2.95;;;2.72;;
40595;SDS011;26304;48.794;9.820;2024-02-14T00:52:03;3.03;;;2.70;;
40595;SDS011;26304;48.794;9.820;2024-02-14T00:54:26;3.00;;;2.78;;
40595;SDS011;26304;48.794;9.820;2024-02-14T00:56:48;2.78;;;2.47;;
40595;SDS011;26304;48.794;9.820;2024-02-14T00:59:11;2.75;;;2.47;;
40595;SDS011;26304;48.794;9.820;2024-02-14T01:01:35;2.70;;;2.50;;
40595;SDS011;26304;48.794;9.820;2024-02-14T01:03:57;2.20;;;2.00;;
40595;SDS011;26304;48.794;9.820;2024-02-14T01:06:19;2.70;;;2.45;;
40595;SDS011;26304;48.794;9.820;2024-02-14T01:08:42;2.60;;;2.40;;
40595;SDS011;26304;48.794;9.820;2024-02-14T01:11:04;2.67;;;2.47;;
40595;SDS011;26304;48.794;9.820;2024-02-14T01:13:27;1.90;;;1.80;;
40595;SDS011;26304;48.794;9.820;2024-02-14T01:15:49;2.38;;;2.17;;
40595;SDS011;26304;48.794;9.820;2024-02-14T01:18:13;2.60;;;2.40;;
40595;SDS011;26304;48.794;9.820;2024-02-14T01:20:35;2.80;;;2.40;;
40595;SDS011;26304;48.794;9.820;2024-02-14T01:22:58;2.47;;;2.28;;
40595;SDS011;26304;48.794;9.820;2024-02-14T01:25:20;2.88;;;2.40;;
40595;SDS011;26304;48.794;9.820;2024-02-14T01:27:43;2.35;;;2.15;;
40595;SDS011;26304;48.794;9.820;2024-02-14T01:30:05;1.88;;;1.75;;
40595;SDS011;26304;48.794;9.820;2024-02-14T01:32:29;2.13;;;1.90;;
40595;SDS011;26304;48.794;9.820;2024-02-14T01:34:52;2.13;;;1.92;;
40595;SDS011;26304;48.794;9.820;2024-02-14T01:37:15;2.58;;;2.10;;
40595;SDS011;26304;48.794;9.820;2024-02-14T01:39:38;2.45;;;2.20;;
40595;SDS011;26304;48.794;9.820;2024-02-14T01:42:00;2.22;;;1.88;;
40595;SDS011;26304;48.794;9.820;2024-02-14T01:44:27;2.60;;;2.40;;
40595;SDS011;26304;48.794;9.820;2024-02-14T01:46:50;1.92;;;1.80;;
40595;SDS011;26304;48.794;9.820;2024-02-14T01:49:13;2.65;;;2.00;;
40595;SDS011;26304;48.794;9.820;2024-02-14T01:51:39;2.58;;;2.38;;
40595;SDS011;26304;48.794;9.820;2024-02-14T01:54:02;2.13;;;1.92;;
40595;SDS011;26304;48.794;9.820;2024-02-14T01:56:25;2.92;;;2.13;;
40595;SDS011;26304;48.794;9.820;2024-02-14T01:58:48;2.20;;;2.00;;
40595;SDS011;26304;48.794;9.820;2024-02-14T02:01:11;2.22;;;2.10;;
40595;SDS011;26304;48.794;9.820;2024-02-14T02:03:33;2.28;;;2.08;;
40595;SDS011;26304;48.794;9.820;2024-02-14T02:05:58;2.22;;;2.03;;
40595;SDS011;26304;48.794;9.820;2024-02-14T02:08:22;2.00;;;1.90;;
40595;SDS011;26304;48.794;9.820;2024-02-14T02:10:44;2.67;;;2.30;;
40595;SDS011;26304;48.794;9.820;2024-02-14T02:13:07;2.10;;;2.00;;
40595;SDS011;26304;48.794;9.820;2024-02-14T02:15:30;2.17;;;1.98;;
40595;SDS011;26304;48.794;9.820;2024-02-14T02:17:53;2.13;;;1.92;;
40595;SDS011;26304;48.794;9.820;2024-02-14T02:20:15;2.42;;;2.22;;
40595;SDS011;26304;48.794;9.820;2024-02-14T02:22:43;2.00;;;1.83;;
40595;SDS011;26304;48.794;9.820;2024-02-14T02:25:08;2.20;;;2.00;;
40595;SDS011;26304;48.794;9.820;2024-02-14T02:27:31;2.55;;;2.28;;
40595;SDS011;26304;48.794;9.820;2024-02-14T02:29:56;3.00;;;1.80;;
40595;SDS011;26304;48.794;9.820;2024-02-14T02:32:18;2.40;;;1.80;;
40595;SDS011;26304;48.794;9.820;2024-02-14T02:34:40;2.10;;;1.85;;
40595;SDS011;26304;48.794;9.820;2024-02-14T02:37:03;1.90;;;1.80;;
40595;SDS011;26304;48.794;9.820;2024-02-14T02:39:29;2.20;;;1.80;;
40595;SDS011;26304;48.794;9.820;2024-02-14T02:41:52;2.05;;;1.85;;
40595;SDS011;26304;48.794;9.820;2024-02-14T02:44:16;1.77;;;1.67;;
40595;SDS011;26304;48.794;9.820;2024-02-14T02:46:38;1.88;;;1.60;;
40595;SDS011;26304;48.794;9.820;2024-02-14T02:49:01;2.10;;;1.83;;
40595;SDS011;26304;48.794;9.820;2024-02-14T02:51:23;1.77;;;1.67;;
40595;SDS011;26304;48.794;9.820;2024-02-14T02:53:46;2.10;;;1.88;;
40595;SDS011;26304;48.794;9.820;2024-02-14T02:56:09;1.85;;;1.75;;
40595;SDS011;26304;48.794;9.820;2024-02-14T02:58:33;1.80;;;1.70;;
40595;SDS011;26304;48.794;9.820;2024-02-14T03:00:55;1.90;;;1.80;;
40595;SDS011;26304;48.794;9.820;2024-02-14T03:03:18;2.17;;;1.70;;
40595;SDS011;26304;48.794;9.820;2024-02-14T03:05:41;1.75;;;1.65;;
40595;SDS011;26304;48.794;9.820;2024-02-14T03:08:05;1.67;;;1.52;;
40595;SDS011;26304;48.794;9.820;2024-02-14T03:10:29;1.95;;;1.70;;
40595;SDS011;26304;48.794;9.820;2024-02-14T03:12:53;1.70;;;1.60;;
40595;SDS011;26304;48.794;9.820;2024-02-14T03:15:15;1.98;;;1.42;;
40595;SDS011;26304;48.794;9.820;2024-02-14T03:17:39;2.28;;;1.60;;
40595;SDS011;26304;48.794;9.820;2024-02-14T03:20:03;1.80;;;1.67;;
40595;SDS011;26304;48.794;9.820;2024-02-14T03:22:31;2.15;;;1.80;;
40595;SDS011;26304;48.794;9.820;2024-02-14T03:24:53;2.08;;;1.70;;
40595;SDS011;26304;48.794;9.820;2024-02-14T03:27:16;2.28;;;1.60;;
40595;SDS011;26304;48.794;9.820;2024-02-14T03:29:41;2.42;;;1.75;;
40595;SDS011;26304;48.794;9.820;2024-02-14T03:32:05;1.50;;;1.40;;
40595;SDS011;26304;48.794;9.820;2024-02-14T03:34:29;1.90;;;1.50;;
40595;SDS011;26304;48.794;9.820;2024-02-14T03:36:54;2.90;;;1.55;;
40595;SDS011;26304;48.794;9.820;2024-02-14T03:39:16;1.70;;;1.58;;
40595;SDS011;26304;48.794;9.820;2024-02-14T03:41:39;1.60;;;1.50;;
40595;SDS011;26304;48.794;9.820;2024-02-14T03:44:01;1.88;;;1.50;;
40595;SDS011;26304;48.794;9.820;2024-02-14T03:46:26;1.60;;;1.50;;
40595;SDS011;26304;48.794;9.820;2024-02-14T03:48:48;1.60;;;1.50;;
40595;SDS011;26304;48.794;9.820;2024-02-14T03:51:11;1.70;;;1.60;;
40595;SDS011;26304;48.794;9.820;2024-02-14T03:53:33;2.20;;;2.00;;
40595;SDS011;26304;48.794;9.820;2024-02-14T03:55:56;1.80;;;1.70;;
40595;SDS011;26304;48.794;9.820;2024-02-14T03:58:18;1.52;;;1.42;;
40595;SDS011;26304;48.794;9.820;2024-02-14T04:00:43;1.70;;;1.52;;
40595;SDS011;26304;48.794;9.820;2024-02-14T04:03:12;2.00;;;1.60;;
40595;SDS011;26304;48.794;9.820;2024-02-14T04:05:35;1.60;;;1.50;;
40595;SDS011;26304;48.794;9.820;2024-02-14T04:07:57;1.60;;;1.50;;
40595;SDS011;26304;48.794;9.820;2024-02-14T04:10:19;1.40;;;1.30;;
40595;SDS011;26304;48.794;9.820;2024-02-14T04:12:42;1.60;;;1.50;;
40595;SDS011;26304;48.794;9.820;2024-02-14T04:15:05;1.60;;;1.50;;
40595;SDS011;26304;48.794;9.820;2024-02-14T04:17:28;1.77;;;1.52;;
40595;SDS011;26304;48.794;9.820;2024-02-14T04:19:52;2.50;;;1.67;;
40595;SDS011;26304;48.794;9.820;2024-02-14T04:22:14;1.67;;;1.58;;
40595;SDS011;26304;48.794;9.820;2024-02-14T04:24:37;1.70;;;1.58;;
40595;SDS011;26304;48.794;9.820;2024-02-14T04:26:59;1.90;;;1.70;;
40595;SDS011;26304;48.794;9.820;2024-02-14T04:29:23;2.38;;;1.50;;
40595;SDS011;26304;48.794;9.820;2024-02-14T04:31:46;1.70;;;1.58;;
40595;SDS011;26304;48.794;9.820;2024-02-14T04:34:08;2.05;;;1.35;;
40595;SDS011;26304;48.794;9.820;2024-02-14T04:36:32;1.80;;;1.70;;
40595;SDS011;26304;48.794;9.820;2024-02-14T04:38:56;2.00;;;1.65;;
40595;SDS011;26304;48.794;9.820;2024-02-14T04:41:19;1.50;;;1.40;;
40595;SDS011;26304;48.794;9.820;2024-02-14T04:43:42;1.70;;;1.60;;
40595;SDS011;26304;48.794;9.820;2024-02-14T04:46:04;1.75;;;1.50;;
40595;SDS011;26304;48.794;9.820;2024-02-14T04:48:28;1.88;;;1.52;;
40595;SDS011;26304;48.794;9.820;2024-02-14T04:50:50;1.20;;;1.10;;
40595;SDS011;26304;48.794;9.820;2024-02-14T04:53:14;1.58;;;1.48;;
40595;SDS011;26304;48.794;9.820;2024-02-14T04:55:38;1.70;;;1.60;;
40595;SDS011;26304;48.794;9.820;2024-02-14T04:58:00;1.67;;;1.38;;
40595;SDS011;26304;48.794;9.820;2024-02-14T05:00:23;1.75;;;1.65;;
40595;SDS011;26304;48.794;9.820;2024-02-14T05:02:45;1.85;;;1.67;;
40595;SDS011;26304;48.794;9.820;2024-02-14T05:05:07;1.60;;;1.50;;
40595;SDS011;26304;48.794;9.820;2024-02-14T05:07:30;2.10;;;1.58;;
40595;SDS011;26304;48.794;9.820;2024-02-14T05:09:54;1.63;;;1.52;;
40595;SDS011;26304;48.794;9.820;2024-02-14T05:12:17;1.80;;;1.70;;
40595;SDS011;26304;48.794;9.820;2024-02-14T05:14:40;2.13;;;1.33;;
40595;SDS011;26304;48.794;9.820;2024-02-14T05:17:03;2.13;;;1.30;;
40595;SDS011;26304;48.794;9.820;2024-02-14T05:19:25;1.70;;;1.50;;
40595;SDS011;26304;48.794;9.820;2024-02-14T05:21:48;1.50;;;1.40;;
40595;SDS011;26304;48.794;9.820;2024-02-14T05:24:11;1.65;;;1.55;;
40595;SDS011;26304;48.794;9.820;2024-02-14T05:26:35;1.50;;;1.40;;
40595;SDS011;26304;48.794;9.820;2024-02-14T05:28:58;2.13;;;1.48;;
40595;SDS011;26304;48.794;9.820;2024-02-14T05:31:20;1.45;;;1.33;;
40595;SDS011;26304;48.794;9.820;2024-02-14T05:33:43;1.92;;;1.65;;
40595;SDS011;26304;48.794;9.820;2024-02-14T05:36:06;1.48;;;1.38;;
40595;SDS011;26304;48.794;9.820;2024-02-14T05:38:28;1.50;;;1.40;;
40595;SDS011;26304;48.794;9.820;2024-02-14T05:40:52;1.70;;;1.60;;
40595;SDS011;26304;48.794;9.820;2024-02-14T05:43:17;1.40;;;1.30;;
40595;SDS011;26304;48.794;9.820;2024-02-14T05:45:39;1.60;;;1.50;;
40595;SDS011;26304;48.794;9.820;2024-02-14T05:48:02;1.63;;;1.48;;
40595;SDS011;26304;48.794;9.820;2024-02-14T05:50:25;1.67;;;1.58;;
40595;SDS011;26304;48.794;9.820;2024-02-14T05:52:48;2.10;;;1.23;;
40595;SDS011;26304;48.794;9.820;2024-02-14T05:55:10;1.70;;;1.48;;
40595;SDS011;26304;48.794;9.820;2024-02-14T05:57:33;1.98;;;1.60;;
40595;SDS011;26304;48.794;9.820;2024-02-14T05:59:56;1.60;;;1.38;;
40595;SDS011;26304;48.794;9.820;2024-02-14T06:02:19;1.42;;;1.27;;
40595;SDS011;26304;48.794;9.820;2024-02-14T06:04:42;2.00;;;1.55;;
40595;SDS011;26304;48.794;9.820;2024-02-14T06:07:04;1.50;;;1.30;;
40595;SDS011;26304;48.794;9.820;2024-02-14T06:09:29;3.08;;;1.52;;
40595;SDS011;26304;48.794;9.820;2024-02-14T06:11:51;1.50;;;1.40;;
40595;SDS011;26304;48.794;9.820;2024-02-14T06:14:14;1.67;;;1.30;;
40595;SDS011;26304;48.794;9.820;2024-02-14T06:16:38;1.30;;;1.20;;
40595;SDS011;26304;48.794;9.820;2024-02-14T06:19:00;1.55;;;1.45;;
40595;SDS011;26304;48.794;9.820;2024-02-14T06:21:25;1.30;;;1.20;;
40595;SDS011;26304;48.794;9.820;2024-02-14T06:23:48;1.73;;;1.10;;
40595;SDS011;26304;48.794;9.820;2024-02-14T06:26:10;1.88;;;1.73;;
40595;SDS011;26304;48.794;9.820;2024-02-14T06:28:33;1.50;;;1.40;;
40595;SDS011;26304;48.794;9.820;2024-02-14T06:30:55;1.60;;;1.50;;
40595;SDS011;26304;48.794;9.820;2024-02-14T06:33:19;1.30;;;1.20;;
40595;SDS011;26304;48.794;9.820;2024-02-14T06:35:41;2.80;;;1.83;;
40595;SDS011;26304;48.794;9.820;2024-02-14T06:38:04;1.58;;;1.45;;
40595;SDS011;26304;48.794;9.820;2024-02-14T06:40:27;2.17;;;1.40;;
40595;SDS011;26304;48.794;9.820;2024-02-14T06:42:50;1.27;;;1.08;;
40595;SDS011;26304;48.794;9.820;2024-02-14T06:45:12;1.67;;;1.40;;
40595;SDS011;26304;48.794;9.820;2024-02-14T06:47:35;2.33;;;1.30;;
40595;SDS011;26304;48.794;9.820;2024-02-14T06:49:59;2.78;;;1.50;;
40595;SDS011;26304;48.794;9.820;2024-02-14T06:52:21;1.60;;;1.50;;
40595;SDS011;26304;48.794;9.820;2024-02-14T06:54:43;1.50;;;1.40;;
40595;SDS011;26304;48.794;9.820;2024-02-14T06:57:06;1.30;;;1.20;;
40595;SDS011;26304;48.794;9.820;2024-02-14T06:59:29;1.10;;;1.08;;
40595;SDS011;26304;48.794;9.820;2024-02-14T07:01:51;2.13;;;1.40;;
40595;SDS011;26304;48.794;9.820;2024-02-14T07:04:15;1.33;;;1.23;;
40595;SDS011;26304;48.794;9.820;2024-02-14T07:06:42;1.48;;;1.20;;
40595;SDS011;26304;48.794;9.820;2024-02-14T07:09:04;1.50;;;1.40;;
40595;SDS011;26304;48.794;9.820;2024-02-14T07:11:27;1.73;;;1.20;;
40595;SDS011;26304;48.794;9.820;2024-02-14T07:13:49;1.92;;;1.05;;
40595;SDS011;26304;48.794;9.820;2024-02-14T07:16:11;1.52;;;1.35;;
40595;SDS011;26304;48.794;9.820;2024-02-14T07:18:34;1.23;;;1.13;;
40595;SDS011;26304;48.794;9.820;2024-02-14T07:20:56;4.55;;;1.50;;
40595;SDS011;26304;48.794;9.820;2024-02-14T07:23:20;1.45;;;1.30;;
40595;SDS011;26304;48.794;9.820;2024-02-14T07:25:43;1.73;;;1.15;;
40595;SDS011;26304;48.794;9.820;2024-02-14T07:28:05;1.13;;;0.88;;
40595;SDS011;26304;48.794;9.820;2024-02-14T07:30:28;1.10;;;1.00;;
40595;SDS011;26304;48.794;9.820;2024-02-14T07:32:50;1.15;;;1.05;;
40595;SDS011;26304;48.794;9.820;2024-02-14T07:35:13;1.45;;;1.20;;
40595;SDS011;26304;48.794;9.820;2024-02-14T07:37:36;2.08;;;1.08;;
40595;SDS011;26304;48.794;9.820;2024-02-14T07:40:00;2.13;;;1.13;;
40595;SDS011;26304;48.794;9.820;2024-02-14T07:42:22;1.27;;;1.17;;
40595;SDS011;26304;48.794;9.820;2024-02-14T07:44:44;1.75;;;1.10;;
40595;SDS011;26304;48.794;9.820;2024-02-14T07:47:07;1.30;;;1.20;;
40595;SDS011;26304;48.794;9.820;2024-02-14T07:49:29;0.95;;;0.95;;
40595;SDS011;26304;48.794;9.820;2024-02-14T07:51:52;2.30;;;1.17;;
40595;SDS011;26304;48.794;9.820;2024-02-14T07:54:14;1.50;;;1.10;;
40595;SDS011;26304;48.794;9.820;2024-02-14T07:56:38;1.42;;;1.30;;
40595;SDS011;26304;48.794;9.820;2024-02-14T07:59:00;1.10;;;1.00;;
40595;SDS011;26304;48.794;9.820;2024-02-14T08:01:23;1.33;;;1.23;;
40595;SDS011;26304;48.794;9.820;2024-02-14T08:03:45;1.48;;;1.10;;
40595;SDS011;26304;48.794;9.820;2024-02-14T08:06:08;0.90;;;0.90;;
40595;SDS011;26304;48.794;9.820;2024-02-14T08:08:30;2.80;;;1.10;;
40595;SDS011;26304;48.794;9.820;2024-02-14T08:10:53;0.93;;;0.93;;
40595;SDS011;26304;48.794;9.820;2024-02-14T08:13:17;1.10;;;1.00;;
40595;SDS011;26304;48.794;9.820;2024-02-14T08:15:40;2.13;;;1.20;;
40595;SDS011;26304;48.794;9.820;2024-02-14T08:18:02;2.83;;;1.10;;
40595;SDS011;26304;48.794;9.820;2024-02-14T08:20:25;0.98;;;0.98;;
40595;SDS011;26304;48.794;9.820;2024-02-14T08:22:48;1.60;;;1.10;;
40595;SDS011;26304;48.794;9.820;2024-02-14T08:25:10;1.60;;;1.50;;
40595;SDS011;26304;48.794;9.820;2024-02-14T08:27:33;2.97;;;2.28;;
40595;SDS011;26304;48.794;9.820;2024-02-14T08:29:57;3.03;;;1.73;;
40595;SDS011;26304;48.794;9.820;2024-02-14T08:32:19;2.47;;;2.28;;
40595;SDS011;26304;48.794;9.820;2024-02-14T08:34:42;2.50;;;2.08;;
40595;SDS011;26304;48.794;9.820;2024-02-14T08:37:04;2.53;;;2.03;;
40595;SDS011;26304;48.794;9.820;2024-02-14T08:39:27;3.30;;;2.45;;
40595;SDS011;26304;48.794;9.820;2024-02-14T08:41:50;2.72;;;2.28;;
40595;SDS011;26304;48.794;9.820;2024-02-14T08:44:13;3.30;;;2.30;;
40595;SDS011;26304;48.794;9.820;2024-02-14T08:46:37;3.20;;;1.85;;
40595;SDS011;26304;48.794;9.820;2024-02-14T08:49:00;2.17;;;1.55;;
40595;SDS011;26304;48.794;9.820;2024-02-14T08:51:23;1.73;;;1.63;;
40595;SDS011;26304;48.794;9.820;2024-02-14T08:53:45;1.63;;;1.52;;
40595;SDS011;26304;48.794;9.820;2024-02-14T08:56:08;2.03;;;1.83;;
40595;SDS011;26304;48.794;9.820;2024-02-14T08:58:31;1.80;;;1.70;;
40595;SDS011;26304;48.794;9.820;2024-02-14T09:00:56;1.92;;;1.77;;
40595;SDS011;26304;48.794;9.820;2024-02-14T09:03:20;2.00;;;1.80;;
40595;SDS011;26304;48.794;9.820;2024-02-14T09:05:42;1.70;;;1.42;;
40595;SDS011;26304;48.794;9.820;2024-02-14T09:08:05;2.63;;;1.83;;
40595;SDS011;26304;48.794;9.820;2024-02-14T09:10:27;2.05;;;1.77;;
40595;SDS011;26304;48.794;9.820;2024-02-14T09:12:50;2.45;;;1.77;;
40595;SDS011;26304;48.794;9.820;2024-02-14T09:15:14;2.95;;;1.98;;
40595;SDS011;26304;48.794;9.820;2024-02-14T09:17:36;2.55;;;1.90;;
40595;SDS011;26304;48.794;9.820;2024-02-14T09:20:00;1.98;;;1.70;;
40595;SDS011;26304;48.794;9.820;2024-02-14T09:22:23;3.78;;;1.92;;
40595;SDS011;26304;48.794;9.820;2024-02-14T09:24:45;1.77;;;1.55;;
40595;SDS011;26304;48.794;9.820;2024-02-14T09:27:08;1.92;;;1.80;;
40595;SDS011;26304;48.794;9.820;2024-02-14T09:29:30;2.90;;;2.00;;
40595;SDS011;26304;48.794;9.820;2024-02-14T09:31:52;2.30;;;1.92;;
40595;SDS011;26304;48.794;9.820;2024-02-14T09:34:15;2.65;;;2.00;;
40595;SDS011;26304;48.794;9.820;2024-02-14T09:36:40;2.33;;;1.80;;
40595;SDS011;26304;48.794;9.820;2024-02-14T09:39:02;1.80;;;1.60;;
40595;SDS011;26304;48.794;9.820;2024-02-14T09:41:29;2.35;;;1.63;;
40595;SDS011;26304;48.794;9.820;2024-02-14T09:43:58;1.90;;;1.67;;
40595;SDS011;26304;48.794;9.820;2024-02-14T09:46:20;1.58;;;1.45;;
40595;SDS011;26304;48.794;9.820;2024-02-14T09:48:46;3.10;;;1.60;;
40595;SDS011;26304;48.794;9.820;2024-02-14T09:51:08;2.42;;;1.58;;
40595;SDS011;26304;48.794;9.820;2024-02-14T09:53:34;1.40;;;1.30;;
40595;SDS011;26304;48.794;9.820;2024-02-14T09:55:56;2.03;;;1.80;;
40595;SDS011;26304;48.794;9.820;2024-02-14T09:58:19;2.35;;;1.50;;
40595;SDS011;26304;48.794;9.820;2024-02-14T10:00:43;2.20;;;1.70;;
40595;SDS011;26304;48.794;9.820;2024-02-14T10:03:05;2.97;;;1.40;;
40595;SDS011;26304;48.794;9.820;2024-02-14T10:05:28;1.48;;;1.38;;
40595;SDS011;26304;48.794;9.820;2024-02-14T10:07:50;1.90;;;1.60;;
40595;SDS011;26304;48.794;9.820;2024-02-14T10:10:14;1.90;;;1.70;;
40595;SDS011;26304;48.794;9.820;2024-02-14T10:12:36;2.47;;;2.28;;
40595;SDS011;26304;48.794;9.820;2024-02-14T10:14:59;2.08;;;1.75;;
40595;SDS011;26304;48.794;9.820;2024-02-14T10:17:22;1.83;;;1.73;;
40595;SDS011;26304;48.794;9.820;2024-02-14T10:19:54;2.40;;;2.20;;
40595;SDS011;26304;48.794;9.820;2024-02-14T10:22:17;2.00;;;1.63;;
40595;SDS011;26304;48.794;9.820;2024-02-14T10:24:39;1.58;;;1.48;;
40595;SDS011;26304;48.794;9.820;2024-02-14T10:27:05;1.70;;;1.60;;
40595;SDS011;26304;48.794;9.820;2024-02-14T10:29:29;2.35;;;1.55;;
40595;SDS011;26304;48.794;9.820;2024-02-14T10:31:52;1.70;;;1.60;;
40595;SDS011;26304;48.794;9.820;2024-02-14T10:34:14;1.77;;;1.67;;
40595;SDS011;26304;48.794;9.820;2024-02-14T10:36:37;2.05;;;1.52;;
40595;SDS011;26304;48.794;9.820;2024-02-14T10:39:01;1.70;;;1.45;;
40595;SDS011;26304;48.794;9.820;2024-02-14T10:41:24;2.55;;;1.85;;
40595;SDS011;26304;48.794;9.820;2024-02-14T10:43:53;2.47;;;1.80;;
40595;SDS011;26304;48.794;9.820;2024-02-14T10:46:18;2.25;;;1.70;;
40595;SDS011;26304;48.794;9.820;2024-02-14T10:48:42;2.25;;;1.52;;
40595;SDS011;26304;48.794;9.820;2024-02-14T10:51:05;2.38;;;1.70;;
40595;SDS011;26304;48.794;9.820;2024-02-14T10:53:31;1.48;;;1.38;;
40595;SDS011;26304;48.794;9.820;2024-02-14T10:55:55;3.10;;;1.58;;
40595;SDS011;26304;48.794;9.820;2024-02-14T10:58:20;4.15;;;1.58;;
40595;SDS011;26304;48.794;9.820;2024-02-14T11:00:47;1.40;;;1.30;;
40595;SDS011;26304;48.794;9.820;2024-02-14T11:03:09;1.85;;;1.45;;
40595;SDS011;26304;48.794;9.820;2024-02-14T11:05:42;2.85;;;1.33;;
40595;SDS011;26304;48.794;9.820;2024-02-14T11:08:07;1.35;;;1.23;;
40595;SDS011;26304;48.794;9.820;2024-02-14T11:10:30;1.45;;;1.33;;
40595;SDS011;26304;48.794;9.820;2024-02-14T11:12:59;3.63;;;1.50;;
40595;SDS011;26304;48.794;9.820;2024-02-14T11:15:22;1.98;;;1.20;;
40595;SDS011;26304;48.794;9.820;2024-02-14T11:17:47;3.33;;;1.15;;
40595;SDS011;26304;48.794;9.820;2024-02-14T11:20:14;1.65;;;1.15;;
40595;SDS011;26304;48.794;9.820;2024-02-14T11:22:36;1.08;;;0.98;;
40595;SDS011;26304;48.794;9.820;2024-02-14T11:24:59;1.08;;;0.98;;
40595;SDS011;26304;48.794;9.820;2024-02-14T11:27:28;1.73;;;1.20;;
40595;SDS011;26304;48.794;9.820;2024-02-14T11:29:51;1.92;;;1.00;;
40595;SDS011;26304;48.794;9.820;2024-02-14T11:32:14;1.85;;;1.00;;
40595;SDS011;26304;48.794;9.820;2024-02-14T11:34:41;1.52;;;1.13;;
40595;SDS011;26304;48.794;9.820;2024-02-14T11:37:04;1.10;;;0.93;;
40595;SDS011;26304;48.794;9.820;2024-02-14T11:39:27;1.13;;;1.02;;
40595;SDS011;26304;48.794;9.820;2024-02-14T11:41:49;1.25;;;1.10;;
40595;SDS011;26304;48.794;9.820;2024-02-14T11:44:12;1.20;;;1.08;;
40595;SDS011;26304;48.794;9.820;2024-02-14T11:46:34;1.05;;;0.90;;
40595;SDS011;26304;48.794;9.820;2024-02-14T11:48:58;1.65;;;1.17;;
40595;SDS011;26304;48.794;9.820;2024-02-14T11:51:22;1.20;;;1.10;;
40595;SDS011;26304;48.794;9.820;2024-02-14T11:53:46;2.25;;;1.45;;
40595;SDS011;26304;48.794;9.820;2024-02-14T11:56:08;2.20;;;1.95;;
40595;SDS011;26304;48.794;9.820;2024-02-14T11:58:31;2.70;;;2.28;;
40595;SDS011;26304;48.794;9.820;2024-02-14T12:00:53;1.90;;;1.80;;
40595;SDS011;26304;48.794;9.820;2024-02-14T12:03:16;1.77;;;1.52;;
40595;SDS011;26304;48.794;9.820;2024-02-14T12:05:40;1.77;;;1.33;;
40595;SDS011;26304;48.794;9.820;2024-02-14T12:08:06;2.28;;;1.90;;
40595;SDS011;26304;48.794;9.820;2024-02-14T12:10:30;3.03;;;1.60;;
40595;SDS011;26304;48.794;9.820;2024-02-14T12:12:53;2.70;;;1.90;;
40595;SDS011;26304;48.794;9.820;2024-02-14T12:15:16;1.88;;;1.30;;
40595;SDS011;26304;48.794;9.820;2024-02-14T12:17:38;1.58;;;1.23;;
40595;SDS011;26304;48.794;9.820;2024-02-14T12:20:07;1.63;;;1.50;;
40595;SDS011;26304;48.794;9.820;2024-02-14T12:22:32;1.40;;;1.20;;
40595;SDS011;26304;48.794;9.820;2024-02-14T12:24:57;2.83;;;1.70;;
40595;SDS011;26304;48.794;9.820;2024-02-14T12:27:19;6.43;;;1.70;;
40595;SDS011;26304;48.794;9.820;2024-02-14T12:29:45;5.30;;;1.80;;
40595;SDS011;26304;48.794;9.820;2024-02-14T12:32:08;6.45;;;1.75;;
40595;SDS011;26304;48.794;9.820;2024-02-14T12:34:31;4.90;;;1.73;;
40595;SDS011;26304;48.794;9.820;2024-02-14T12:36:54;5.60;;;1.50;;
40595;SDS011;26304;48.794;9.820;2024-02-14T12:39:16;4.22;;;1.50;;
40595;SDS011;26304;48.794;9.820;2024-02-14T12:41:40;2.85;;;1.25;;
40595;SDS011;26304;48.794;9.820;2024-02-14T12:44:02;5.43;;;1.55;;
40595;SDS011;26304;48.794;9.820;2024-02-14T12:46:24;1.52;;;1.08;;
40595;SDS011;26304;48.794;9.820;2024-02-14T12:48:47;1.27;;;1.10;;
40595;SDS011;26304;48.794;9.820;2024-02-14T12:51:10;1.60;;;1.10;;
40595;SDS011;26304;48.794;9.820;2024-02-14T12:53:32;1.73;;;1.00;;
40595;SDS011;26304;48.794;9.820;2024-02-14T12:55:55;1.17;;;1.08;;
40595;SDS011;26304;48.794;9.820;2024-02-14T12:58:18;1.25;;;1.10;;
40595;SDS011;26304;48.794;9.820;2024-02-14T13:00:41;0.85;;;0.85;;
40595;SDS011;26304;48.794;9.820;2024-02-14T13:03:05;2.65;;;1.05;;
40595;SDS011;26304;48.794;9.820;2024-02-14T13:05:28;1.88;;;1.40;;
40595;SDS011;26304;48.794;9.820;2024-02-14T13:07:51;1.13;;;0.95;;
40595;SDS011;26304;48.794;9.820;2024-02-14T13:10:13;1.73;;;1.45;;
40595;SDS011;26304;48.794;9.820;2024-02-14T13:12:36;2.25;;;1.10;;
40595;SDS011;26304;48.794;9.820;2024-02-14T13:15:01;1.95;;;1.27;;
40595;SDS011;26304;48.794;9.820;2024-02-14T13:17:23;1.58;;;1.10;;
40595;SDS011;26304;48.794;9.820;2024-02-14T13:19:47;1.10;;;1.00;;
40595;SDS011;26304;48.794;9.820;2024-02-14T13:22:10;1.20;;;0.98;;
40595;SDS011;26304;48.794;9.820;2024-02-14T13:24:32;1.58;;;0.90;;
40595;SDS011;26304;48.794;9.820;2024-02-14T13:26:55;0.98;;;0.88;;
40595;SDS011;26304;48.794;9.820;2024-02-14T13:29:18;0.75;;;0.70;;
40595;SDS011;26304;48.794;9.820;2024-02-14T13:31:42;2.03;;;0.80;;
40595;SDS011;26304;48.794;9.820;2024-02-14T13:34:04;1.00;;;0.82;;
40595;SDS011;26304;48.794;9.820;2024-02-14T13:36:27;1.17;;;0.77;;
40595;SDS011;26304;48.794;9.820;2024-02-14T13:38:49;1.02;;;0.80;;
40595;SDS011;26304;48.794;9.820;2024-02-14T13:41:12;1.60;;;1.00;;
40595;SDS011;26304;48.794;9.820;2024-02-14T13:43:34;1.20;;;0.98;;
40595;SDS011;26304;48.794;9.820;2024-02-14T13:45:57;1.85;;;0.95;;
40595;SDS011;26304;48.794;9.820;2024-02-14T13:48:21;2.13;;;0.75;;
40595;SDS011;26304;48.794;9.820;2024-02-14T13:50:43;1.55;;;0.85;;
40595;SDS011;26304;48.794;9.820;2024-02-14T13:53:06;0.80;;;0.80;;
40595;SDS011;26304;48.794;9.820;2024-02-14T13:55:28;1.15;;;0.93;;
40595;SDS011;26304;48.794;9.820;2024-02-14T13:57:51;1.08;;;0.85;;
40595;SDS011;26304;48.794;9.820;2024-02-14T14:00:14;2.03;;;0.95;;
40595;SDS011;26304;48.794;9.820;2024-02-14T14:02:36;3.50;;;0.80;;
40595;SDS011;26304;48.794;9.820;2024-02-14T14:05:03;1.02;;;0.80;;
40595;SDS011;26304;48.794;9.820;2024-02-14T14:07:28;0.70;;;0.70;;
40595;SDS011;26304;48.794;9.820;2024-02-14T14:09:50;0.80;;;0.80;;
40595;SDS011;26304;48.794;9.820;2024-02-14T14:12:13;1.85;;;0.88;;
40595;SDS011;26304;48.794;9.820;2024-02-14T14:14:35;0.70;;;0.70;;
40595;SDS011;26304;48.794;9.820;2024-02-14T14:16:58;1.58;;;0.90;;
40595;SDS011;26304;48.794;9.820;2024-02-14T14:19:20;2.05;;;0.80;;
40595;SDS011;26304;48.794;9.820;2024-02-14T14:21:44;1.35;;;1.02;;
40595;SDS011;26304;48.794;9.820;2024-02-14T14:24:07;1.17;;;0.75;;